Share

Salmon Arm, British Columbia

Blind Bay, BC (IBCCOLUM4) Elev 1142 ft | 50.88 °N, 119.37 °W | Change Station

Current weather conditions updated 1 second ago

Light Rain
Light Rain Mist
47.3 °F
Feels Like 47 °F
N
0.0
Wind Variable Wind from North
Gusts 0.0 mph
Sunrise 5:58 AM
Sunset 7:55 PM
Moon Waning Gibbous

Tomorrow is forecast to be Warmer than today. Light rain in the morning.

Pressure 29.63 in
Visibility 5.0 miles
Clouds Few 3600 ft
Scattered Clouds 5500 ft
Mostly Cloudy 8600 ft
Overcast 12000 ft
Windchill 47 °F
Dew Point 47 °F
Humidity 99%
Rainfall 0.37 in
Snow Depth Not available.
UV 0 out of 16
Pollen Not available.
Air Quality Not available.
Flu Activity Not available.
SPECI CYLW 180549Z AUTO 35008KT 5SM -RA BR FEW036 SCT055 BKN086 OVC120 08/08 A2961 RMK PCPN 2.0MM PAST HR SLP034

More Conditions Fewer Conditions

Pressure 29.63 in
Visibility 5.0 miles
Clouds Few 3600 ft
Scattered Clouds 5500 ft
Mostly Cloudy 8600 ft
Overcast 12000 ft
Windchill 47 °F
Dew Point 47 °F
Humidity 99%
Rainfall 0.37 in
Snow Depth Not available.
UV 0 out of 16
Pollen Not available.
Air Quality Not available.
Flu Activity Not available.
SPECI CYLW 180549Z AUTO 35008KT 5SM -RA BR FEW036 SCT055 BKN086 OVC120 08/08 A2961 RMK PCPN 2.0MM PAST HR SLP034

More Conditions Fewer Conditions

10-Day Forecast

Almanac

Astronomy

Apr. 17, 2014 Rise Set
Actual Time 5:58 AM PDT 7:55 PM PDT
Civil Twilight 5:23 AM PDT 8:30 PM PDT
Nautical Twilight 4:40 AM PDT 9:14 PM PDT
Astronomical Twilight 3:51 AM PDT 10:03 PM PDT
Moon 11:00 PM PDT (4/17) 7:22 AM PDT (4/17)
Length of Visible Light 15h 07m
Length of Day
13h 57m
Tomorrow will be 3m 41s longer.
Waning Gibbous, 90% of the Moon is Illuminated
Apr 18
Waning Gibbous
Apr 22
Last Quarter
Apr 29
New
May 6
First Quarter
May 14
Full

Today's Extremes

Country Highs Country Lows

Community

  • SUNRISE THROUGH THE TREES.
    SUNRISE THROUGH THE TREES.
  • Dog Wood Blossoms
    Dog Wood Blossoms
  • Morning Light
    Morning Light
  • New Day
    New Day
  • Lake Michigan Sunrise
    Lake Michigan Sunrise

WunderPhotos

Upload Photos

1,702,272 photos uploaded!

WunderBlogs® & News

Nearby

Snow Depth

Not available.

Coastal Water Temperatures

Place Temperature
No Stations Reporting

Earthquake Activity

City Distance Mag. Time & Date
Princeton, Canada 105 miles 2.5 2:14 PM PDT
2014-04-12
Minimum magnitude displayed is 2.5.

Nearby Weather Stations

Station Location Temp. Windchill Dew Point Humidity Wind Precip. Elev Updated Type
Blind Bay, BC, Columbia-Shuswap C 47.3 °F 47 °F 47 °F 99% North  at  0.0 mph 0.00 in / hr 1142 ft 10:49 PM PDT Normal
Lee Creek 44.8 °F 44 °F 44 °F 99% ENE  at  3.2 mph - / hr 1627 ft 10:45 PM PDT Normal
Stepping Stones, Vernon 45.6 °F 46 °F 43 °F 92% SW  at  0.0 mph 0.08 in / hr 1345 ft 10:48 PM PDT Normal

Show More Stations Show Fewer Stations

What do you think?

We're not finished. Please let us know what you like, what you don't like, and what you are still missing.